sensor_id;sensor_type;location;lat;lon;timestamp;P1;durP1;ratioP1;P2;durP2;ratioP2
10701;SDS011;5402;50.004;8.246;2024-01-27T00:00:50;3.47;;;1.67;;
10701;SDS011;5402;50.004;8.246;2024-01-27T00:03:17;3.70;;;1.53;;
10701;SDS011;5402;50.004;8.246;2024-01-27T00:05:43;3.03;;;1.90;;
10701;SDS011;5402;50.004;8.246;2024-01-27T00:08:10;7.10;;;1.70;;
10701;SDS011;5402;50.004;8.246;2024-01-27T00:10:37;5.07;;;1.50;;
10701;SDS011;5402;50.004;8.246;2024-01-27T00:13:05;7.70;;;1.93;;
10701;SDS011;5402;50.004;8.246;2024-01-27T00:15:32;6.67;;;1.53;;
10701;SDS011;5402;50.004;8.246;2024-01-27T00:17:58;9.77;;;2.23;;
10701;SDS011;5402;50.004;8.246;2024-01-27T00:20:25;4.30;;;1.67;;
10701;SDS011;5402;50.004;8.246;2024-01-27T00:22:52;7.37;;;2.10;;
10701;SDS011;5402;50.004;8.246;2024-01-27T00:25:18;5.33;;;1.40;;
10701;SDS011;5402;50.004;8.246;2024-01-27T00:27:45;5.27;;;1.90;;
10701;SDS011;5402;50.004;8.246;2024-01-27T00:30:13;3.43;;;1.50;;
10701;SDS011;5402;50.004;8.246;2024-01-27T00:32:40;5.53;;;1.57;;
10701;SDS011;5402;50.004;8.246;2024-01-27T00:35:07;7.73;;;2.30;;
10701;SDS011;5402;50.004;8.246;2024-01-27T00:37:34;6.63;;;1.90;;
10701;SDS011;5402;50.004;8.246;2024-01-27T00:40:01;6.07;;;1.80;;
10701;SDS011;5402;50.004;8.246;2024-01-27T00:42:28;6.23;;;1.60;;
10701;SDS011;5402;50.004;8.246;2024-01-27T00:44:55;5.80;;;1.70;;
10701;SDS011;5402;50.004;8.246;2024-01-27T00:47:23;4.47;;;1.20;;
10701;SDS011;5402;50.004;8.246;2024-01-27T00:49:49;4.97;;;1.80;;
10701;SDS011;5402;50.004;8.246;2024-01-27T00:52:16;5.47;;;1.50;;
10701;SDS011;5402;50.004;8.246;2024-01-27T00:54:43;4.70;;;1.70;;
10701;SDS011;5402;50.004;8.246;2024-01-27T00:57:09;4.03;;;1.80;;
10701;SDS011;5402;50.004;8.246;2024-01-27T00:59:36;3.80;;;1.40;;
10701;SDS011;5402;50.004;8.246;2024-01-27T01:02:04;6.43;;;1.63;;
10701;SDS011;5402;50.004;8.246;2024-01-27T01:04:32;6.03;;;1.80;;
10701;SDS011;5402;50.004;8.246;2024-01-27T01:06:58;5.63;;;1.63;;
10701;SDS011;5402;50.004;8.246;2024-01-27T01:09:25;2.87;;;1.23;;
10701;SDS011;5402;50.004;8.246;2024-01-27T01:11:52;4.10;;;1.50;;
10701;SDS011;5402;50.004;8.246;2024-01-27T01:14:18;4.50;;;2.07;;
10701;SDS011;5402;50.004;8.246;2024-01-27T01:16:45;3.20;;;1.50;;
10701;SDS011;5402;50.004;8.246;2024-01-27T01:19:12;5.33;;;2.07;;
10701;SDS011;5402;50.004;8.246;2024-01-27T01:21:40;6.03;;;2.03;;
10701;SDS011;5402;50.004;8.246;2024-01-27T01:24:06;6.53;;;1.70;;
10701;SDS011;5402;50.004;8.246;2024-01-27T01:26:33;4.97;;;2.00;;
10701;SDS011;5402;50.004;8.246;2024-01-27T01:29:00;7.50;;;2.17;;
10701;SDS011;5402;50.004;8.246;2024-01-27T01:31:27;5.90;;;1.77;;
10701;SDS011;5402;50.004;8.246;2024-01-27T01:33:53;4.70;;;1.77;;
10701;SDS011;5402;50.004;8.246;2024-01-27T01:36:20;6.17;;;2.00;;
10701;SDS011;5402;50.004;8.246;2024-01-27T01:38:48;2.87;;;1.40;;
10701;SDS011;5402;50.004;8.246;2024-01-27T01:41:15;9.87;;;1.63;;
10701;SDS011;5402;50.004;8.246;2024-01-27T01:43:41;5.53;;;1.87;;
10701;SDS011;5402;50.004;8.246;2024-01-27T01:46:08;7.73;;;1.60;;
10701;SDS011;5402;50.004;8.246;2024-01-27T01:48:35;3.63;;;1.63;;
10701;SDS011;5402;50.004;8.246;2024-01-27T01:51:01;4.53;;;1.67;;
10701;SDS011;5402;50.004;8.246;2024-01-27T01:53:29;6.43;;;1.70;;
10701;SDS011;5402;50.004;8.246;2024-01-27T01:55:57;4.13;;;1.80;;
10701;SDS011;5402;50.004;8.246;2024-01-27T01:58:24;3.67;;;1.40;;
10701;SDS011;5402;50.004;8.246;2024-01-27T02:00:51;4.83;;;1.60;;
10701;SDS011;5402;50.004;8.246;2024-01-27T02:03:17;3.67;;;1.80;;
10701;SDS011;5402;50.004;8.246;2024-01-27T02:05:44;6.47;;;1.90;;
10701;SDS011;5402;50.004;8.246;2024-01-27T02:08:11;4.07;;;1.90;;
10701;SDS011;5402;50.004;8.246;2024-01-27T02:10:37;4.50;;;1.77;;
10701;SDS011;5402;50.004;8.246;2024-01-27T02:13:12;3.67;;;1.67;;
10701;SDS011;5402;50.004;8.246;2024-01-27T02:15:43;4.93;;;1.63;;
10701;SDS011;5402;50.004;8.246;2024-01-27T02:18:09;7.80;;;1.87;;
10701;SDS011;5402;50.004;8.246;2024-01-27T02:20:36;3.33;;;1.83;;
10701;SDS011;5402;50.004;8.246;2024-01-27T02:23:03;8.63;;;1.60;;
10701;SDS011;5402;50.004;8.246;2024-01-27T02:25:32;3.00;;;1.87;;
10701;SDS011;5402;50.004;8.246;2024-01-27T02:27:59;5.97;;;1.80;;
10701;SDS011;5402;50.004;8.246;2024-01-27T02:30:28;5.30;;;1.50;;
10701;SDS011;5402;50.004;8.246;2024-01-27T02:32:55;7.87;;;1.90;;
10701;SDS011;5402;50.004;8.246;2024-01-27T02:35:22;6.27;;;1.57;;
10701;SDS011;5402;50.004;8.246;2024-01-27T02:37:48;2.97;;;1.67;;
10701;SDS011;5402;50.004;8.246;2024-01-27T02:40:15;4.30;;;1.67;;
10701;SDS011;5402;50.004;8.246;2024-01-27T02:42:44;5.50;;;2.00;;
10701;SDS011;5402;50.004;8.246;2024-01-27T02:45:10;4.63;;;1.93;;
10701;SDS011;5402;50.004;8.246;2024-01-27T02:47:37;9.17;;;1.90;;
10701;SDS011;5402;50.004;8.246;2024-01-27T02:50:04;4.43;;;1.80;;
10701;SDS011;5402;50.004;8.246;2024-01-27T02:52:32;3.17;;;1.70;;
10701;SDS011;5402;50.004;8.246;2024-01-27T02:54:58;5.27;;;1.90;;
10701;SDS011;5402;50.004;8.246;2024-01-27T02:57:25;5.20;;;2.03;;
10701;SDS011;5402;50.004;8.246;2024-01-27T02:59:53;4.53;;;1.63;;
10701;SDS011;5402;50.004;8.246;2024-01-27T03:02:20;3.30;;;1.90;;
10701;SDS011;5402;50.004;8.246;2024-01-27T03:04:47;5.13;;;1.87;;
10701;SDS011;5402;50.004;8.246;2024-01-27T03:07:13;4.17;;;1.90;;
10701;SDS011;5402;50.004;8.246;2024-01-27T03:09:40;5.50;;;1.80;;
10701;SDS011;5402;50.004;8.246;2024-01-27T03:12:07;6.40;;;1.80;;
10701;SDS011;5402;50.004;8.246;2024-01-27T03:14:34;6.20;;;1.80;;
10701;SDS011;5402;50.004;8.246;2024-01-27T03:17:02;5.80;;;1.80;;
10701;SDS011;5402;50.004;8.246;2024-01-27T03:19:29;6.13;;;1.93;;
10701;SDS011;5402;50.004;8.246;2024-01-27T03:21:56;4.93;;;1.90;;
10701;SDS011;5402;50.004;8.246;2024-01-27T03:24:23;7.63;;;2.37;;
10701;SDS011;5402;50.004;8.246;2024-01-27T03:26:49;7.43;;;1.83;;
10701;SDS011;5402;50.004;8.246;2024-01-27T03:29:16;4.90;;;1.87;;
10701;SDS011;5402;50.004;8.246;2024-01-27T03:31:43;3.73;;;1.87;;
10701;SDS011;5402;50.004;8.246;2024-01-27T03:34:11;3.63;;;1.73;;
10701;SDS011;5402;50.004;8.246;2024-01-27T03:36:37;6.03;;;1.87;;
10701;SDS011;5402;50.004;8.246;2024-01-27T03:39:05;5.97;;;2.10;;
10701;SDS011;5402;50.004;8.246;2024-01-27T03:41:33;7.23;;;2.27;;
10701;SDS011;5402;50.004;8.246;2024-01-27T03:43:59;5.87;;;2.00;;
10701;SDS011;5402;50.004;8.246;2024-01-27T03:46:26;7.10;;;2.20;;
10701;SDS011;5402;50.004;8.246;2024-01-27T03:48:53;7.27;;;2.17;;
10701;SDS011;5402;50.004;8.246;2024-01-27T03:51:21;4.47;;;1.97;;
10701;SDS011;5402;50.004;8.246;2024-01-27T03:53:48;4.03;;;2.10;;
10701;SDS011;5402;50.004;8.246;2024-01-27T03:56:14;7.30;;;2.10;;
10701;SDS011;5402;50.004;8.246;2024-01-27T03:58:41;6.13;;;2.00;;
10701;SDS011;5402;50.004;8.246;2024-01-27T04:01:08;5.00;;;1.80;;
10701;SDS011;5402;50.004;8.246;2024-01-27T04:03:35;5.03;;;1.87;;
10701;SDS011;5402;50.004;8.246;2024-01-27T04:06:01;5.57;;;2.00;;
10701;SDS011;5402;50.004;8.246;2024-01-27T04:08:30;7.17;;;1.97;;
10701;SDS011;5402;50.004;8.246;2024-01-27T04:10:57;5.47;;;1.83;;
10701;SDS011;5402;50.004;8.246;2024-01-27T04:13:24;4.33;;;1.97;;
10701;SDS011;5402;50.004;8.246;2024-01-27T04:15:51;6.93;;;2.17;;
10701;SDS011;5402;50.004;8.246;2024-01-27T04:18:18;5.40;;;2.03;;
10701;SDS011;5402;50.004;8.246;2024-01-27T04:20:45;4.30;;;1.97;;
10701;SDS011;5402;50.004;8.246;2024-01-27T04:23:13;6.30;;;2.20;;
10701;SDS011;5402;50.004;8.246;2024-01-27T04:25:41;3.90;;;1.97;;
10701;SDS011;5402;50.004;8.246;2024-01-27T04:28:08;5.43;;;1.90;;
10701;SDS011;5402;50.004;8.246;2024-01-27T04:30:37;5.10;;;1.93;;
10701;SDS011;5402;50.004;8.246;2024-01-27T04:33:04;6.03;;;1.67;;
10701;SDS011;5402;50.004;8.246;2024-01-27T04:35:32;8.03;;;2.17;;
10701;SDS011;5402;50.004;8.246;2024-01-27T04:37:59;4.10;;;1.90;;
10701;SDS011;5402;50.004;8.246;2024-01-27T04:40:25;3.87;;;1.80;;
10701;SDS011;5402;50.004;8.246;2024-01-27T04:42:53;5.77;;;1.70;;
10701;SDS011;5402;50.004;8.246;2024-01-27T04:45:20;7.00;;;2.10;;
10701;SDS011;5402;50.004;8.246;2024-01-27T04:47:47;4.27;;;1.97;;
10701;SDS011;5402;50.004;8.246;2024-01-27T04:50:14;4.73;;;1.93;;
10701;SDS011;5402;50.004;8.246;2024-01-27T04:52:41;7.27;;;1.90;;
10701;SDS011;5402;50.004;8.246;2024-01-27T04:55:08;6.77;;;1.90;;
10701;SDS011;5402;50.004;8.246;2024-01-27T04:57:34;5.93;;;2.50;;
10701;SDS011;5402;50.004;8.246;2024-01-27T05:00:03;5.53;;;2.63;;
10701;SDS011;5402;50.004;8.246;2024-01-27T05:02:35;6.70;;;2.30;;
10701;SDS011;5402;50.004;8.246;2024-01-27T05:05:02;4.20;;;2.10;;
10701;SDS011;5402;50.004;8.246;2024-01-27T05:07:29;5.90;;;2.20;;
10701;SDS011;5402;50.004;8.246;2024-01-27T05:09:56;4.77;;;2.03;;
10701;SDS011;5402;50.004;8.246;2024-01-27T05:12:22;5.97;;;1.73;;
10701;SDS011;5402;50.004;8.246;2024-01-27T05:14:49;5.77;;;2.20;;
10701;SDS011;5402;50.004;8.246;2024-01-27T05:17:17;5.97;;;2.20;;
10701;SDS011;5402;50.004;8.246;2024-01-27T05:19:44;5.70;;;2.20;;
10701;SDS011;5402;50.004;8.246;2024-01-27T05:22:11;7.60;;;2.30;;
10701;SDS011;5402;50.004;8.246;2024-01-27T05:24:37;6.07;;;2.17;;
10701;SDS011;5402;50.004;8.246;2024-01-27T05:27:04;4.00;;;2.20;;
10701;SDS011;5402;50.004;8.246;2024-01-27T05:29:31;3.90;;;2.10;;
10701;SDS011;5402;50.004;8.246;2024-01-27T05:31:58;7.17;;;2.13;;
10701;SDS011;5402;50.004;8.246;2024-01-27T05:34:26;7.40;;;2.70;;
10701;SDS011;5402;50.004;8.246;2024-01-27T05:36:53;4.30;;;2.10;;
10701;SDS011;5402;50.004;8.246;2024-01-27T05:39:19;4.73;;;2.10;;
10701;SDS011;5402;50.004;8.246;2024-01-27T05:41:46;4.90;;;2.00;;
10701;SDS011;5402;50.004;8.246;2024-01-27T05:44:13;4.43;;;2.10;;
10701;SDS011;5402;50.004;8.246;2024-01-27T05:46:40;7.13;;;2.10;;
10701;SDS011;5402;50.004;8.246;2024-01-27T05:49:06;4.20;;;2.00;;
10701;SDS011;5402;50.004;8.246;2024-01-27T05:51:34;4.23;;;2.00;;
10701;SDS011;5402;50.004;8.246;2024-01-27T05:54:01;5.13;;;2.00;;
10701;SDS011;5402;50.004;8.246;2024-01-27T05:56:28;7.53;;;1.97;;
10701;SDS011;5402;50.004;8.246;2024-01-27T05:58:55;6.37;;;2.20;;
10701;SDS011;5402;50.004;8.246;2024-01-27T06:01:21;6.30;;;2.17;;
10701;SDS011;5402;50.004;8.246;2024-01-27T06:03:49;4.40;;;1.87;;
10701;SDS011;5402;50.004;8.246;2024-01-27T06:06:16;5.70;;;2.13;;
10701;SDS011;5402;50.004;8.246;2024-01-27T06:08:44;5.47;;;2.17;;
10701;SDS011;5402;50.004;8.246;2024-01-27T06:11:11;5.00;;;2.03;;
10701;SDS011;5402;50.004;8.246;2024-01-27T06:13:38;6.17;;;2.10;;
10701;SDS011;5402;50.004;8.246;2024-01-27T06:16:06;8.57;;;2.30;;
10701;SDS011;5402;50.004;8.246;2024-01-27T06:18:34;3.60;;;1.87;;
10701;SDS011;5402;50.004;8.246;2024-01-27T06:21:02;4.87;;;2.10;;
10701;SDS011;5402;50.004;8.246;2024-01-27T06:23:29;2.70;;;2.07;;
10701;SDS011;5402;50.004;8.246;2024-01-27T06:25:57;4.53;;;2.00;;
10701;SDS011;5402;50.004;8.246;2024-01-27T06:28:24;3.67;;;1.97;;
10701;SDS011;5402;50.004;8.246;2024-01-27T06:30:51;7.70;;;2.40;;
10701;SDS011;5402;50.004;8.246;2024-01-27T06:33:17;7.93;;;2.80;;
10701;SDS011;5402;50.004;8.246;2024-01-27T06:35:45;8.50;;;2.27;;
10701;SDS011;5402;50.004;8.246;2024-01-27T06:38:11;5.87;;;2.03;;
10701;SDS011;5402;50.004;8.246;2024-01-27T06:40:39;2.80;;;1.80;;
10701;SDS011;5402;50.004;8.246;2024-01-27T06:43:07;9.80;;;2.43;;
10701;SDS011;5402;50.004;8.246;2024-01-27T06:45:35;4.27;;;2.30;;
10701;SDS011;5402;50.004;8.246;2024-01-27T06:48:02;4.80;;;2.10;;
10701;SDS011;5402;50.004;8.246;2024-01-27T06:50:29;7.17;;;2.40;;
10701;SDS011;5402;50.004;8.246;2024-01-27T06:52:56;4.67;;;1.97;;
10701;SDS011;5402;50.004;8.246;2024-01-27T06:55:22;4.70;;;2.43;;
10701;SDS011;5402;50.004;8.246;2024-01-27T06:57:49;6.90;;;2.70;;
10701;SDS011;5402;50.004;8.246;2024-01-27T07:00:18;5.30;;;3.10;;
10701;SDS011;5402;50.004;8.246;2024-01-27T07:02:45;6.10;;;2.77;;
10701;SDS011;5402;50.004;8.246;2024-01-27T07:05:12;6.43;;;2.83;;
10701;SDS011;5402;50.004;8.246;2024-01-27T07:07:39;3.27;;;2.40;;
10701;SDS011;5402;50.004;8.246;2024-01-27T07:10:07;7.40;;;2.97;;
10701;SDS011;5402;50.004;8.246;2024-01-27T07:12:34;4.20;;;2.20;;
10701;SDS011;5402;50.004;8.246;2024-01-27T07:15:01;10.10;;;2.33;;
10701;SDS011;5402;50.004;8.246;2024-01-27T07:17:29;4.57;;;2.53;;
10701;SDS011;5402;50.004;8.246;2024-01-27T07:19:56;4.00;;;2.37;;
10701;SDS011;5402;50.004;8.246;2024-01-27T07:22:23;4.73;;;2.67;;
10701;SDS011;5402;50.004;8.246;2024-01-27T07:24:49;7.27;;;2.60;;
10701;SDS011;5402;50.004;8.246;2024-01-27T07:27:16;6.40;;;2.83;;
10701;SDS011;5402;50.004;8.246;2024-01-27T07:29:44;6.10;;;2.47;;
10701;SDS011;5402;50.004;8.246;2024-01-27T07:32:11;7.70;;;2.47;;
10701;SDS011;5402;50.004;8.246;2024-01-27T07:34:41;4.97;;;2.57;;
10701;SDS011;5402;50.004;8.246;2024-01-27T07:37:08;4.73;;;2.43;;
10701;SDS011;5402;50.004;8.246;2024-01-27T07:39:35;5.87;;;2.77;;
10701;SDS011;5402;50.004;8.246;2024-01-27T07:42:02;3.53;;;2.50;;
10701;SDS011;5402;50.004;8.246;2024-01-27T07:44:29;7.10;;;3.30;;
10701;SDS011;5402;50.004;8.246;2024-01-27T07:46:56;4.00;;;2.87;;
10701;SDS011;5402;50.004;8.246;2024-01-27T07:49:22;8.63;;;2.87;;
10701;SDS011;5402;50.004;8.246;2024-01-27T07:51:50;7.13;;;2.97;;
10701;SDS011;5402;50.004;8.246;2024-01-27T07:54:17;4.27;;;2.50;;
10701;SDS011;5402;50.004;8.246;2024-01-27T07:56:44;5.07;;;2.97;;
10701;SDS011;5402;50.004;8.246;2024-01-27T07:59:11;5.77;;;2.97;;
10701;SDS011;5402;50.004;8.246;2024-01-27T08:01:40;5.27;;;2.97;;
10701;SDS011;5402;50.004;8.246;2024-01-27T08:04:07;7.73;;;3.27;;
10701;SDS011;5402;50.004;8.246;2024-01-27T08:06:34;9.33;;;3.47;;
10701;SDS011;5402;50.004;8.246;2024-01-27T08:09:12;5.83;;;3.17;;
10701;SDS011;5402;50.004;8.246;2024-01-27T08:11:39;6.27;;;2.70;;
10701;SDS011;5402;50.004;8.246;2024-01-27T08:14:06;5.80;;;2.83;;
10701;SDS011;5402;50.004;8.246;2024-01-27T08:16:33;7.53;;;3.50;;
10701;SDS011;5402;50.004;8.246;2024-01-27T08:19:00;8.93;;;3.27;;
10701;SDS011;5402;50.004;8.246;2024-01-27T08:21:26;7.83;;;3.03;;
10701;SDS011;5402;50.004;8.246;2024-01-27T08:23:53;7.17;;;3.17;;
10701;SDS011;5402;50.004;8.246;2024-01-27T08:26:21;8.40;;;3.40;;
10701;SDS011;5402;50.004;8.246;2024-01-27T08:28:48;7.87;;;3.60;;
10701;SDS011;5402;50.004;8.246;2024-01-27T08:31:15;8.27;;;3.10;;
10701;SDS011;5402;50.004;8.246;2024-01-27T08:33:42;5.73;;;3.00;;
10701;SDS011;5402;50.004;8.246;2024-01-27T08:36:12;6.77;;;2.97;;
10701;SDS011;5402;50.004;8.246;2024-01-27T08:38:39;8.50;;;3.10;;
10701;SDS011;5402;50.004;8.246;2024-01-27T08:41:06;6.20;;;2.90;;
10701;SDS011;5402;50.004;8.246;2024-01-27T08:43:34;6.83;;;3.00;;
10701;SDS011;5402;50.004;8.246;2024-01-27T08:46:01;8.37;;;3.27;;
10701;SDS011;5402;50.004;8.246;2024-01-27T08:48:27;5.43;;;2.73;;
10701;SDS011;5402;50.004;8.246;2024-01-27T08:50:54;6.73;;;2.67;;
10701;SDS011;5402;50.004;8.246;2024-01-27T08:53:21;8.33;;;2.90;;
10701;SDS011;5402;50.004;8.246;2024-01-27T08:55:47;4.87;;;2.60;;
10701;SDS011;5402;50.004;8.246;2024-01-27T08:58:14;8.10;;;3.10;;
10701;SDS011;5402;50.004;8.246;2024-01-27T09:00:42;7.13;;;2.73;;
10701;SDS011;5402;50.004;8.246;2024-01-27T09:03:09;7.70;;;2.70;;
10701;SDS011;5402;50.004;8.246;2024-01-27T09:05:37;4.97;;;3.00;;
10701;SDS011;5402;50.004;8.246;2024-01-27T09:08:05;6.23;;;2.93;;
10701;SDS011;5402;50.004;8.246;2024-01-27T09:10:33;6.00;;;2.83;;
10701;SDS011;5402;50.004;8.246;2024-01-27T09:12:59;10.10;;;3.30;;
10701;SDS011;5402;50.004;8.246;2024-01-27T09:15:26;6.57;;;2.90;;
10701;SDS011;5402;50.004;8.246;2024-01-27T09:17:54;5.43;;;2.97;;
10701;SDS011;5402;50.004;8.246;2024-01-27T09:20:21;8.03;;;2.83;;
10701;SDS011;5402;50.004;8.246;2024-01-27T09:22:48;8.60;;;3.43;;
10701;SDS011;5402;50.004;8.246;2024-01-27T09:25:15;4.97;;;3.07;;
10701;SDS011;5402;50.004;8.246;2024-01-27T09:27:42;8.23;;;3.77;;
10701;SDS011;5402;50.004;8.246;2024-01-27T09:30:09;6.83;;;3.30;;
10701;SDS011;5402;50.004;8.246;2024-01-27T09:32:36;5.17;;;3.13;;
10701;SDS011;5402;50.004;8.246;2024-01-27T09:35:10;5.20;;;2.87;;
10701;SDS011;5402;50.004;8.246;2024-01-27T09:37:38;6.10;;;3.30;;
10701;SDS011;5402;50.004;8.246;2024-01-27T09:40:06;5.67;;;2.90;;
10701;SDS011;5402;50.004;8.246;2024-01-27T09:42:33;8.73;;;3.10;;
10701;SDS011;5402;50.004;8.246;2024-01-27T09:45:01;6.27;;;3.60;;
10701;SDS011;5402;50.004;8.246;2024-01-27T09:47:28;3.87;;;2.87;;
10701;SDS011;5402;50.004;8.246;2024-01-27T09:49:55;7.87;;;3.33;;
10701;SDS011;5402;50.004;8.246;2024-01-27T09:52:24;6.10;;;2.80;;
10701;SDS011;5402;50.004;8.246;2024-01-27T09:54:51;7.73;;;3.37;;
10701;SDS011;5402;50.004;8.246;2024-01-27T09:57:18;5.27;;;3.20;;
10701;SDS011;5402;50.004;8.246;2024-01-27T09:59:46;11.17;;;3.80;;
10701;SDS011;5402;50.004;8.246;2024-01-27T10:02:13;6.00;;;3.47;;
10701;SDS011;5402;50.004;8.246;2024-01-27T10:04:41;5.80;;;3.07;;
10701;SDS011;5402;50.004;8.246;2024-01-27T10:07:09;8.70;;;3.77;;
10701;SDS011;5402;50.004;8.246;2024-01-27T10:09:37;11.27;;;4.30;;
10701;SDS011;5402;50.004;8.246;2024-01-27T10:12:06;5.13;;;3.43;;
10701;SDS011;5402;50.004;8.246;2024-01-27T10:14:38;8.33;;;3.23;;
10701;SDS011;5402;50.004;8.246;2024-01-27T10:17:05;5.57;;;3.30;;
10701;SDS011;5402;50.004;8.246;2024-01-27T10:19:34;4.37;;;3.10;;
10701;SDS011;5402;50.004;8.246;2024-01-27T10:22:01;7.57;;;3.87;;
10701;SDS011;5402;50.004;8.246;2024-01-27T10:24:28;9.03;;;4.00;;
10701;SDS011;5402;50.004;8.246;2024-01-27T10:26:59;10.03;;;3.93;;
10701;SDS011;5402;50.004;8.246;2024-01-27T10:29:26;4.97;;;3.27;;
10701;SDS011;5402;50.004;8.246;2024-01-27T10:31:53;11.60;;;3.83;;
10701;SDS011;5402;50.004;8.246;2024-01-27T10:34:21;6.80;;;3.27;;
10701;SDS011;5402;50.004;8.246;2024-01-27T10:36:47;10.23;;;3.70;;
10701;SDS011;5402;50.004;8.246;2024-01-27T10:39:15;12.23;;;3.87;;
10701;SDS011;5402;50.004;8.246;2024-01-27T10:41:44;7.00;;;4.07;;
10701;SDS011;5402;50.004;8.246;2024-01-27T10:44:14;9.57;;;3.77;;
10701;SDS011;5402;50.004;8.246;2024-01-27T10:46:42;7.90;;;3.80;;
10701;SDS011;5402;50.004;8.246;2024-01-27T10:49:12;9.50;;;3.57;;
10701;SDS011;5402;50.004;8.246;2024-01-27T10:51:41;7.60;;;3.73;;
10701;SDS011;5402;50.004;8.246;2024-01-27T10:54:10;8.23;;;3.93;;
10701;SDS011;5402;50.004;8.246;2024-01-27T10:56:42;8.00;;;3.53;;
10701;SDS011;5402;50.004;8.246;2024-01-27T10:59:09;9.40;;;4.03;;
10701;SDS011;5402;50.004;8.246;2024-01-27T11:01:39;8.03;;;3.63;;
10701;SDS011;5402;50.004;8.246;2024-01-27T11:04:07;8.80;;;3.63;;
10701;SDS011;5402;50.004;8.246;2024-01-27T11:06:38;7.80;;;3.70;;
10701;SDS011;5402;50.004;8.246;2024-01-27T11:09:06;6.13;;;3.83;;
10701;SDS011;5402;50.004;8.246;2024-01-27T11:11:34;8.77;;;3.93;;
10701;SDS011;5402;50.004;8.246;2024-01-27T11:14:02;6.13;;;3.70;;
10701;SDS011;5402;50.004;8.246;2024-01-27T11:16:29;8.17;;;2.83;;
10701;SDS011;5402;50.004;8.246;2024-01-27T11:18:57;5.10;;;2.00;;
10701;SDS011;5402;50.004;8.246;2024-01-27T11:21:24;5.60;;;2.43;;
10701;SDS011;5402;50.004;8.246;2024-01-27T11:23:50;8.37;;;2.17;;
10701;SDS011;5402;50.004;8.246;2024-01-27T11:26:17;5.17;;;2.10;;
10701;SDS011;5402;50.004;8.246;2024-01-27T11:28:47;4.53;;;2.23;;
10701;SDS011;5402;50.004;8.246;2024-01-27T11:31:15;5.47;;;2.27;;
10701;SDS011;5402;50.004;8.246;2024-01-27T11:33:43;6.60;;;2.40;;
10701;SDS011;5402;50.004;8.246;2024-01-27T11:36:19;7.10;;;2.10;;
10701;SDS011;5402;50.004;8.246;2024-01-27T11:38:47;8.00;;;2.10;;
10701;SDS011;5402;50.004;8.246;2024-01-27T11:41:23;7.97;;;1.90;;
10701;SDS011;5402;50.004;8.246;2024-01-27T11:43:51;4.27;;;2.30;;
10701;SDS011;5402;50.004;8.246;2024-01-27T11:46:18;6.67;;;2.17;;
10701;SDS011;5402;50.004;8.246;2024-01-27T11:48:45;7.10;;;1.57;;
10701;SDS011;5402;50.004;8.246;2024-01-27T11:51:12;5.27;;;1.97;;
10701;SDS011;5402;50.004;8.246;2024-01-27T11:53:41;11.23;;;2.00;;
10701;SDS011;5402;50.004;8.246;2024-01-27T11:56:09;4.57;;;1.67;;
10701;SDS011;5402;50.004;8.246;2024-01-27T11:58:37;7.20;;;1.80;;
10701;SDS011;5402;50.004;8.246;2024-01-27T12:01:03;10.53;;;2.47;;
10701;SDS011;5402;50.004;8.246;2024-01-27T12:03:30;6.20;;;1.97;;
10701;SDS011;5402;50.004;8.246;2024-01-27T12:05:58;9.10;;;2.33;;
10701;SDS011;5402;50.004;8.246;2024-01-27T12:08:25;5.27;;;1.60;;
10701;SDS011;5402;50.004;8.246;2024-01-27T12:10:54;5.93;;;2.53;;
10701;SDS011;5402;50.004;8.246;2024-01-27T12:13:21;4.73;;;2.27;;
10701;SDS011;5402;50.004;8.246;2024-01-27T12:15:48;6.47;;;1.80;;
10701;SDS011;5402;50.004;8.246;2024-01-27T12:18:15;4.37;;;1.80;;
10701;SDS011;5402;50.004;8.246;2024-01-27T12:20:43;6.07;;;1.53;;
10701;SDS011;5402;50.004;8.246;2024-01-27T12:23:11;6.27;;;1.80;;
10701;SDS011;5402;50.004;8.246;2024-01-27T12:25:38;8.80;;;2.03;;
10701;SDS011;5402;50.004;8.246;2024-01-27T12:28:08;4.87;;;1.70;;
10701;SDS011;5402;50.004;8.246;2024-01-27T12:30:35;7.93;;;2.03;;
10701;SDS011;5402;50.004;8.246;2024-01-27T12:33:07;5.60;;;1.60;;
10701;SDS011;5402;50.004;8.246;2024-01-27T12:35:38;4.43;;;1.67;;
10701;SDS011;5402;50.004;8.246;2024-01-27T12:38:05;5.27;;;1.60;;
10701;SDS011;5402;50.004;8.246;2024-01-27T12:40:32;6.33;;;1.50;;
10701;SDS011;5402;50.004;8.246;2024-01-27T12:42:58;6.97;;;1.77;;
10701;SDS011;5402;50.004;8.246;2024-01-27T12:45:26;11.20;;;2.00;;
10701;SDS011;5402;50.004;8.246;2024-01-27T12:47:53;6.63;;;1.70;;
10701;SDS011;5402;50.004;8.246;2024-01-27T12:50:20;11.93;;;1.80;;
10701;SDS011;5402;50.004;8.246;2024-01-27T12:52:47;8.00;;;1.53;;
10701;SDS011;5402;50.004;8.246;2024-01-27T12:55:14;7.20;;;1.73;;
10701;SDS011;5402;50.004;8.246;2024-01-27T12:57:41;6.37;;;1.87;;
10701;SDS011;5402;50.004;8.246;2024-01-27T13:00:08;6.53;;;1.80;;
10701;SDS011;5402;50.004;8.246;2024-01-27T13:02:37;2.77;;;1.27;;
10701;SDS011;5402;50.004;8.246;2024-01-27T13:05:03;5.03;;;1.97;;
10701;SDS011;5402;50.004;8.246;2024-01-27T13:07:31;10.60;;;2.07;;
10701;SDS011;5402;50.004;8.246;2024-01-27T13:09:57;5.70;;;2.00;;
10701;SDS011;5402;50.004;8.246;2024-01-27T13:12:24;5.93;;;1.33;;
10701;SDS011;5402;50.004;8.246;2024-01-27T13:14:51;7.67;;;1.80;;
10701;SDS011;5402;50.004;8.246;2024-01-27T13:17:20;5.43;;;1.90;;
10701;SDS011;5402;50.004;8.246;2024-01-27T13:19:48;4.17;;;1.47;;
10701;SDS011;5402;50.004;8.246;2024-01-27T13:22:15;4.60;;;1.60;;
10701;SDS011;5402;50.004;8.246;2024-01-27T13:24:42;8.90;;;3.30;;
10701;SDS011;5402;50.004;8.246;2024-01-27T13:27:09;9.37;;;5.87;;
10701;SDS011;5402;50.004;8.246;2024-01-27T13:29:36;7.00;;;4.37;;
10701;SDS011;5402;50.004;8.246;2024-01-27T13:32:03;7.93;;;2.57;;
10701;SDS011;5402;50.004;8.246;2024-01-27T13:34:31;8.47;;;1.70;;
10701;SDS011;5402;50.004;8.246;2024-01-27T13:37:00;5.30;;;1.87;;
10701;SDS011;5402;50.004;8.246;2024-01-27T13:39:29;7.57;;;2.10;;
10701;SDS011;5402;50.004;8.246;2024-01-27T13:41:55;4.47;;;1.93;;
10701;SDS011;5402;50.004;8.246;2024-01-27T13:44:22;7.13;;;1.87;;
10701;SDS011;5402;50.004;8.246;2024-01-27T13:46:49;8.00;;;1.93;;
10701;SDS011;5402;50.004;8.246;2024-01-27T13:49:15;5.73;;;2.00;;
10701;SDS011;5402;50.004;8.246;2024-01-27T13:51:42;6.43;;;2.13;;
10701;SDS011;5402;50.004;8.246;2024-01-27T13:54:10;9.73;;;1.83;;
10701;SDS011;5402;50.004;8.246;2024-01-27T13:56:37;8.33;;;2.23;;
10701;SDS011;5402;50.004;8.246;2024-01-27T13:59:04;8.90;;;1.53;;
10701;SDS011;5402;50.004;8.246;2024-01-27T14:01:31;5.67;;;1.97;;
10701;SDS011;5402;50.004;8.246;2024-01-27T14:03:58;4.57;;;2.10;;
10701;SDS011;5402;50.004;8.246;2024-01-27T14:06:25;6.00;;;2.03;;
10701;SDS011;5402;50.004;8.246;2024-01-27T14:08:51;7.57;;;1.80;;
10701;SDS011;5402;50.004;8.246;2024-01-27T14:11:19;7.43;;;2.07;;
10701;SDS011;5402;50.004;8.246;2024-01-27T14:13:47;7.07;;;2.10;;
10701;SDS011;5402;50.004;8.246;2024-01-27T14:16:15;6.83;;;2.20;;
10701;SDS011;5402;50.004;8.246;2024-01-27T14:18:42;6.60;;;2.10;;
10701;SDS011;5402;50.004;8.246;2024-01-27T14:21:08;5.43;;;2.00;;
10701;SDS011;5402;50.004;8.246;2024-01-27T14:23:36;3.77;;;1.53;;
10701;SDS011;5402;50.004;8.246;2024-01-27T14:26:03;7.00;;;1.80;;
10701;SDS011;5402;50.004;8.246;2024-01-27T14:28:34;4.17;;;1.50;;
10701;SDS011;5402;50.004;8.246;2024-01-27T14:31:01;9.27;;;1.60;;
10701;SDS011;5402;50.004;8.246;2024-01-27T14:33:27;5.67;;;1.97;;
10701;SDS011;5402;50.004;8.246;2024-01-27T14:35:54;5.77;;;1.60;;
10701;SDS011;5402;50.004;8.246;2024-01-27T14:38:21;5.60;;;1.90;;
10701;SDS011;5402;50.004;8.246;2024-01-27T14:40:47;11.90;;;1.80;;
10701;SDS011;5402;50.004;8.246;2024-01-27T14:43:14;4.60;;;1.87;;
10701;SDS011;5402;50.004;8.246;2024-01-27T14:45:44;6.57;;;2.00;;
10701;SDS011;5402;50.004;8.246;2024-01-27T14:48:12;4.10;;;1.87;;
10701;SDS011;5402;50.004;8.246;2024-01-27T14:50:39;7.00;;;2.20;;
10701;SDS011;5402;50.004;8.246;2024-01-27T14:53:06;5.77;;;2.03;;
10701;SDS011;5402;50.004;8.246;2024-01-27T14:55:33;18.57;;;9.37;;
10701;SDS011;5402;50.004;8.246;2024-01-27T14:57:59;3.90;;;1.90;;
10701;SDS011;5402;50.004;8.246;2024-01-27T15:00:28;6.93;;;2.43;;